createdAt,value
2024-03-12T00:00:30.201Z,96510.78
2024-03-12T00:03:18.622Z,96510.02
2024-03-12T00:05:46.782Z,96511.56
2024-03-12T00:08:15.464Z,96512.67
2024-03-12T00:10:44.672Z,96512.36
2024-03-12T00:13:13.126Z,96510.56
2024-03-12T00:15:42.987Z,96504.52
2024-03-12T00:18:12.076Z,96500.40
2024-03-12T00:20:40.663Z,96494.44
2024-03-12T00:23:09.186Z,96489.73
2024-03-12T00:25:38.382Z,96485.69
2024-03-12T00:28:07.149Z,96481.41
2024-03-12T00:30:35.653Z,96481.73
2024-03-12T00:33:05.249Z,96483.86
2024-03-12T00:35:36.943Z,96484.56
2024-03-12T00:38:05.682Z,96482.86
2024-03-12T00:40:40.286Z,96482.98
2024-03-12T00:43:09.015Z,96486.33
2024-03-12T00:45:40.781Z,96489.09
2024-03-12T00:48:11.328Z,96485.81
2024-03-12T00:50:41.194Z,96485.43
2024-03-12T00:53:09.792Z,96487.90
2024-03-12T00:55:37.885Z,96488.96
2024-03-12T00:58:11.728Z,96489.70
2024-03-12T01:00:42.229Z,96489.71
2024-03-12T01:03:11.160Z,96486.80
2024-03-12T01:05:40.081Z,96482.97
2024-03-12T01:08:10.400Z,96475.81
2024-03-12T01:10:38.640Z,96464.16
2024-03-12T01:13:08.100Z,96462.23
2024-03-12T01:15:36.648Z,96461.35
2024-03-12T01:18:05.373Z,96459.50
2024-03-12T01:20:36.284Z,96458.70
2024-03-12T01:23:06.953Z,96458.25
2024-03-12T01:25:37.554Z,96464.28
2024-03-12T01:28:08.602Z,96465.91
2024-03-12T01:30:38.503Z,96462.89
2024-03-12T01:33:07.607Z,96460.47
2024-03-12T01:35:40.567Z,96460.75
2024-03-12T01:38:11.768Z,96459.05
2024-03-12T01:40:42.997Z,96455.60
2024-03-12T01:43:13.989Z,96459.83
2024-03-12T01:45:43.812Z,96458.91
2024-03-12T01:48:13.197Z,96461.14
2024-03-12T01:50:42.356Z,96454.35
2024-03-12T01:53:12.385Z,96454.66
2024-03-12T01:55:45.442Z,96455.38
2024-03-12T01:58:16.341Z,96455.33
2024-03-12T02:00:46.030Z,96467.78
2024-03-12T02:03:15.374Z,96467.15
2024-03-12T02:05:43.894Z,96469.98
2024-03-12T02:08:12.664Z,96473.23
2024-03-12T02:10:41.338Z,96474.73
2024-03-12T02:13:09.609Z,96477.63
2024-03-12T02:15:37.853Z,96468.05
2024-03-12T02:18:09.913Z,96464.41
2024-03-12T02:20:39.634Z,96462.57
2024-03-12T02:23:08.155Z,96465.39
2024-03-12T02:25:36.493Z,96465.23
2024-03-12T02:28:05.033Z,96463.23
2024-03-12T02:30:33.239Z,96463.29
2024-03-12T02:33:04.072Z,96458.90
2024-03-12T02:35:35.842Z,96455.35
2024-03-12T02:38:04.295Z,96454.75
2024-03-12T02:40:32.531Z,96453.92
2024-03-12T02:43:00.672Z,96455.33
2024-03-12T02:45:29.391Z,96452.86
2024-03-12T02:47:57.488Z,96455.52
2024-03-12T02:50:25.906Z,96456.70
2024-03-12T02:52:54.809Z,96457.11
2024-03-12T02:55:22.761Z,96457.36
2024-03-12T02:57:50.791Z,96460.25
2024-03-12T03:00:18.968Z,96466.23
2024-03-12T03:02:49.932Z,96461.90
2024-03-12T03:05:18.182Z,96453.90
2024-03-12T03:07:48.485Z,96452.71
2024-03-12T03:10:16.724Z,96444.81
2024-03-12T03:12:44.917Z,96443.73
2024-03-12T03:15:14.380Z,96445.40
2024-03-12T03:17:44.378Z,96447.53
2024-03-12T03:20:15.826Z,96448.95
2024-03-12T03:22:44.467Z,96449.55
2024-03-12T03:25:14.046Z,96451.83
2024-03-12T03:27:43.593Z,96453.13
2024-03-12T03:30:19.849Z,96456.88
2024-03-12T03:32:49.435Z,96453.98
2024-03-12T03:35:19.656Z,96441.06
2024-03-12T03:37:48.121Z,96437.02
2024-03-12T03:40:24.581Z,96437.69
2024-03-12T03:42:57.652Z,96442.02
2024-03-12T03:45:26.599Z,96447.83
2024-03-12T03:47:54.776Z,96445.98
2024-03-12T03:50:23.163Z,96445.59
2024-03-12T03:52:54.221Z,96450.93
2024-03-12T03:55:25.474Z,96456.23
2024-03-12T03:57:54.200Z,96456.59
2024-03-12T04:00:29.898Z,96454.65
2024-03-12T04:02:58.148Z,96454.98
2024-03-12T04:05:26.460Z,96464.23
2024-03-12T04:07:55.497Z,96459.36
2024-03-12T04:10:23.660Z,96457.93
2024-03-12T04:12:52.520Z,96454.59
2024-03-12T04:15:20.723Z,96453.66
2024-03-12T04:17:49.170Z,96451.41
2024-03-12T04:20:21.140Z,96450.52
2024-03-12T04:22:49.268Z,96454.07
2024-03-12T04:25:18.748Z,96452.60
2024-03-12T04:27:47.382Z,96452.72
2024-03-12T04:30:16.625Z,96451.91
2024-03-12T04:32:46.229Z,96453.69
2024-03-12T04:35:14.933Z,96458.66
2024-03-12T04:37:43.575Z,96460.63
2024-03-12T04:40:13.141Z,96462.80
2024-03-12T04:42:45.159Z,96459.05
2024-03-12T04:45:13.423Z,96460.56
2024-03-12T04:47:43.272Z,96459.99
2024-03-12T04:50:15.841Z,96464.44
2024-03-12T04:52:44.466Z,96460.29
2024-03-12T04:55:14.682Z,96460.07
2024-03-12T04:57:44.926Z,96466.94
2024-03-12T05:00:20.082Z,96466.27
2024-03-12T05:02:52.706Z,96468.34
2024-03-12T05:05:25.043Z,96472.46
2024-03-12T05:07:53.948Z,96476.15
2024-03-12T05:10:22.676Z,96479.05
2024-03-12T05:12:53.795Z,96482.13
2024-03-12T05:15:23.103Z,96480.99
2024-03-12T05:17:51.466Z,96480.42
2024-03-12T05:20:24.549Z,96481.66
2024-03-12T05:22:55.311Z,96485.10
2024-03-12T05:25:40.900Z,96482.32
2024-03-12T05:28:10.941Z,96481.38
2024-03-12T05:30:43.765Z,96481.41
2024-03-12T05:33:15.892Z,96480.75
2024-03-12T05:35:52.637Z,96479.45
2024-03-12T05:38:34.162Z,96478.27
2024-03-12T05:41:16.367Z,96483.06
2024-03-12T05:44:03.207Z,96486.84
2024-03-12T05:46:50.811Z,96490.59
2024-03-12T05:49:20.933Z,96497.22
2024-03-12T05:51:49.316Z,96501.96
2024-03-12T05:54:17.415Z,96502.74
2024-03-12T05:56:45.599Z,96502.65
2024-03-12T05:59:13.744Z,96500.13
2024-03-12T06:01:41.866Z,96503.13
2024-03-12T06:04:10.235Z,96506.41
2024-03-12T06:06:38.457Z,96507.61
2024-03-12T06:09:10.600Z,96506.05
2024-03-12T06:11:38.788Z,96509.86
2024-03-12T06:14:10.448Z,96509.96
2024-03-12T06:16:38.595Z,96510.20
2024-03-12T06:19:06.878Z,96512.63
2024-03-12T06:21:35.142Z,96512.50
2024-03-12T06:24:03.411Z,96513.97
2024-03-12T06:26:32.073Z,96515.94
2024-03-12T06:29:00.716Z,96515.98
2024-03-12T06:31:30.526Z,96520.64
2024-03-12T06:33:58.804Z,96518.98
2024-03-12T06:36:26.919Z,96518.91
2024-03-12T06:38:55.129Z,96519.41
2024-03-12T06:41:25.754Z,96522.45
2024-03-12T06:43:54.441Z,96527.04
2024-03-12T06:46:22.585Z,96527.85
2024-03-12T06:48:50.930Z,96529.19
2024-03-12T06:51:19.152Z,96525.92
2024-03-12T06:53:47.340Z,96527.95
2024-03-12T06:56:17.604Z,96528.13
2024-03-12T06:58:46.689Z,96526.84
2024-03-12T07:01:15.840Z,96530.35
2024-03-12T07:03:44.871Z,96536.58
2024-03-12T07:06:13.347Z,96544.32
2024-03-12T07:08:42.879Z,96546.11
2024-03-12T07:11:11.770Z,96548.92
2024-03-12T07:13:41.730Z,96555.56
2024-03-12T07:16:11.207Z,96556.00
2024-03-12T07:18:39.798Z,96554.14
2024-03-12T07:21:08.011Z,96553.55
2024-03-12T07:23:38.101Z,96548.93
2024-03-12T07:26:07.908Z,96543.83
2024-03-12T07:28:36.704Z,96539.38
2024-03-12T07:31:05.156Z,96533.44
2024-03-12T07:33:33.664Z,96532.85
2024-03-12T07:36:05.491Z,96531.83
2024-03-12T07:38:33.961Z,96533.52
2024-03-12T07:41:02.170Z,96529.36
2024-03-12T07:43:31.385Z,96529.04
2024-03-12T07:46:02.078Z,96535.99
2024-03-12T07:48:30.309Z,96540.10
2024-03-12T07:51:01.937Z,96541.22
2024-03-12T07:53:32.119Z,96542.23
2024-03-12T07:56:02.384Z,96540.74
2024-03-12T07:58:30.671Z,96536.77
2024-03-12T08:01:00.252Z,96538.23
2024-03-12T08:03:29.632Z,96544.34
2024-03-12T08:05:58.011Z,96544.61
2024-03-12T08:08:27.266Z,96545.13
2024-03-12T08:10:56.672Z,96543.36
2024-03-12T08:13:26.615Z,96538.48
2024-03-12T08:15:54.884Z,96536.30
2024-03-12T08:18:24.014Z,96528.75
2024-03-12T08:20:53.353Z,96530.52
2024-03-12T08:23:21.793Z,96533.61
2024-03-12T08:25:56.004Z,96532.95
2024-03-12T08:28:28.191Z,96537.51
2024-03-12T08:31:02.046Z,96536.48
2024-03-12T08:33:33.217Z,96539.70
2024-03-12T08:36:02.452Z,96540.90
2024-03-12T08:38:30.694Z,96543.20
2024-03-12T08:40:58.931Z,96539.70
2024-03-12T08:43:27.310Z,96542.35
2024-03-12T08:45:55.795Z,96542.23
2024-03-12T08:48:23.871Z,96541.42
2024-03-12T08:50:51.965Z,96541.06
2024-03-12T08:53:20.159Z,96537.13
2024-03-12T08:55:48.493Z,96537.54
2024-03-12T08:58:17.526Z,96535.45
2024-03-12T09:00:45.775Z,96538.36
2024-03-12T09:03:13.978Z,96540.65
2024-03-12T09:05:42.439Z,96546.72
2024-03-12T09:08:10.838Z,96546.42
2024-03-12T09:10:39.076Z,96544.20
2024-03-12T09:13:07.559Z,96547.19
2024-03-12T09:15:37.344Z,96547.19
2024-03-12T09:18:07.854Z,96548.14
2024-03-12T09:20:38.142Z,96547.89
2024-03-12T09:23:06.577Z,96547.77
2024-03-12T09:25:34.797Z,96543.58
2024-03-12T09:28:06.197Z,96545.27
2024-03-12T09:30:35.565Z,96547.09
2024-03-12T09:33:05.460Z,96547.61
2024-03-12T09:35:33.763Z,96547.26
2024-03-12T09:38:02.350Z,96544.48
2024-03-12T09:40:31.079Z,96539.30
2024-03-12T09:43:01.555Z,96538.04
2024-03-12T09:45:30.854Z,96538.98
2024-03-12T09:47:59.190Z,96538.26
2024-03-12T09:50:30.612Z,96538.61
2024-03-12T09:53:03.421Z,96542.89
2024-03-12T09:55:33.149Z,96543.12
2024-03-12T09:58:01.347Z,96546.11
2024-03-12T10:00:29.672Z,96544.88
2024-03-12T10:03:01.048Z,96541.27
2024-03-12T10:05:30.140Z,96544.23
2024-03-12T10:08:14.942Z,96544.50
2024-03-12T10:10:48.396Z,96542.09
2024-03-12T10:13:18.879Z,96541.45
2024-03-12T10:16:00.549Z,96541.20
2024-03-12T10:18:31.441Z,96546.81
2024-03-12T10:21:02.541Z,96544.69
2024-03-12T10:23:35.017Z,96540.02
2024-03-12T10:26:11.585Z,96537.31
2024-03-12T10:28:46.599Z,96537.85
2024-03-12T10:31:15.960Z,96535.94
2024-03-12T10:33:50.209Z,96536.48
2024-03-12T10:36:34.985Z,96539.39
2024-03-12T10:39:13.400Z,96540.50
2024-03-12T10:41:45.721Z,96539.91
2024-03-12T10:44:13.772Z,96543.05
2024-03-12T10:46:44.825Z,96545.27
2024-03-12T10:49:14.541Z,96543.09
2024-03-12T10:51:44.790Z,96542.08
2024-03-12T10:54:22.970Z,96543.02
2024-03-12T10:56:51.618Z,96544.02
2024-03-12T10:59:21.057Z,96538.16
2024-03-12T11:01:49.810Z,96538.08
2024-03-12T11:04:22.177Z,96540.31
2024-03-12T11:06:53.098Z,96539.34
2024-03-12T11:09:29.718Z,96533.84
2024-03-12T11:11:58.106Z,96532.27
2024-03-12T11:14:29.119Z,96530.77
2024-03-12T11:16:57.836Z,96527.72
2024-03-12T11:19:27.672Z,96526.27
2024-03-12T11:22:06.932Z,96523.89
2024-03-12T11:24:47.224Z,96519.66
2024-03-12T11:27:30.744Z,96514.93
2024-03-12T11:30:05.138Z,96508.08
2024-03-12T11:32:40.083Z,96503.98
2024-03-12T11:35:27.953Z,96506.73
2024-03-12T11:37:56.031Z,96506.92
2024-03-12T11:40:30.239Z,96507.45
2024-03-12T11:42:59.186Z,96506.91
2024-03-12T11:45:43.764Z,96503.20
2024-03-12T11:48:14.677Z,96499.40
2024-03-12T11:50:45.872Z,96494.46
2024-03-12T11:53:24.362Z,96496.19
2024-03-12T11:56:09.700Z,96496.30
2024-03-12T11:58:49.626Z,96493.46
2024-03-12T12:01:23.361Z,96485.85
2024-03-12T12:04:01.407Z,96486.33
2024-03-12T12:06:31.319Z,96485.63
2024-03-12T12:09:07.599Z,96484.40
2024-03-12T12:11:40.680Z,96484.88
2024-03-12T12:14:11.060Z,96481.81
2024-03-12T12:16:41.156Z,96480.80
2024-03-12T12:19:16.626Z,96483.70
2024-03-12T12:21:53.559Z,96482.11
2024-03-12T12:24:26.627Z,96485.43
2024-03-12T12:26:57.406Z,96485.70
2024-03-12T12:29:26.645Z,96485.20
2024-03-12T12:31:55.108Z,96482.55
2024-03-12T12:34:26.643Z,96483.42
2024-03-12T12:36:57.269Z,96485.27
2024-03-12T12:39:35.966Z,96484.19
2024-03-12T12:42:10.974Z,96481.02
2024-03-12T12:44:38.992Z,96477.60
2024-03-12T12:47:07.475Z,96476.80
2024-03-12T12:49:38.144Z,96478.71
2024-03-12T12:52:06.465Z,96480.76
2024-03-12T12:54:37.261Z,96481.36
2024-03-12T12:57:05.852Z,96484.99
2024-03-12T12:59:36.002Z,96484.64
2024-03-12T13:02:15.521Z,96483.82
2024-03-12T13:04:43.654Z,96481.98
2024-03-12T13:07:14.475Z,96485.37
2024-03-12T13:09:43.031Z,96490.86
2024-03-12T13:12:15.044Z,96493.25
2024-03-12T13:14:45.578Z,96494.26
2024-03-12T13:17:14.847Z,96492.21
2024-03-12T13:19:43.917Z,96488.23
2024-03-12T13:22:16.487Z,96488.56
2024-03-12T13:24:48.245Z,96489.27
2024-03-12T13:27:16.416Z,96489.61
2024-03-12T13:29:44.639Z,96491.88
2024-03-12T13:32:13.920Z,96494.84
2024-03-12T13:34:43.156Z,96493.45
2024-03-12T13:37:13.798Z,96495.08
2024-03-12T13:39:42.243Z,96496.79
2024-03-12T13:42:11.610Z,96498.73
2024-03-12T13:44:39.914Z,96504.05
2024-03-12T13:47:08.160Z,96504.32
2024-03-12T13:49:36.365Z,96502.50
2024-03-12T13:52:05.068Z,96500.17
2024-03-12T13:54:33.622Z,96500.42
2024-03-12T13:57:01.825Z,96499.61
2024-03-12T13:59:30.179Z,96499.22
2024-03-12T14:01:59.115Z,96497.83
2024-03-12T14:04:32.193Z,96496.64
2024-03-12T14:07:01.184Z,96492.06
2024-03-12T14:09:29.201Z,96490.02
2024-03-12T14:11:57.470Z,96491.95
2024-03-12T14:14:25.602Z,96490.36
2024-03-12T14:16:53.846Z,96490.23
2024-03-12T14:19:22.530Z,96487.84
2024-03-12T14:21:50.778Z,96489.21
2024-03-12T14:24:18.840Z,96493.48
2024-03-12T14:26:47.137Z,96492.52
2024-03-12T14:29:15.225Z,96491.63
2024-03-12T14:31:43.406Z,96488.16
2024-03-12T14:34:12.094Z,96490.65
2024-03-12T14:36:41.418Z,96492.75
2024-03-12T14:39:13.689Z,96495.40
2024-03-12T14:41:43.176Z,96496.09
2024-03-12T14:44:11.358Z,96498.74
2024-03-12T14:46:42.189Z,96500.74
2024-03-12T14:49:10.607Z,96501.48
2024-03-12T14:51:40.592Z,96503.06
2024-03-12T14:54:11.131Z,96506.67
2024-03-12T14:56:39.667Z,96508.44
2024-03-12T14:59:07.878Z,96506.92
2024-03-12T15:01:37.436Z,96509.09
2024-03-12T15:04:05.724Z,96511.88
2024-03-12T15:06:33.982Z,96513.11
2024-03-12T15:09:04.153Z,96514.20
2024-03-12T15:11:32.955Z,96513.98
2024-03-12T15:14:01.249Z,96513.41
2024-03-12T15:16:29.429Z,96514.03
2024-03-12T15:18:57.510Z,96513.45
2024-03-12T15:21:25.688Z,96515.16
2024-03-12T15:23:53.988Z,96514.05
2024-03-12T15:26:23.594Z,96512.79
2024-03-12T15:28:51.758Z,96514.33
2024-03-12T15:31:19.916Z,96515.60
2024-03-12T15:33:48.211Z,96512.21
2024-03-12T15:36:17.149Z,96513.36
2024-03-12T15:38:45.956Z,96514.91
2024-03-12T15:41:14.168Z,96513.23
2024-03-12T15:43:42.286Z,96512.21
2024-03-12T15:46:12.529Z,96515.25
2024-03-12T15:48:42.632Z,96517.19
2024-03-12T15:51:11.527Z,96518.14
2024-03-12T15:53:43.482Z,96519.48
2024-03-12T15:56:15.137Z,96522.41
2024-03-12T15:58:45.474Z,96525.73
2024-03-12T16:01:14.774Z,96528.20
2024-03-12T16:03:43.323Z,96527.31
2024-03-12T16:06:13.009Z,96528.52
2024-03-12T16:08:44.498Z,96529.70
2024-03-12T16:11:13.358Z,96528.57
2024-03-12T16:13:41.501Z,96529.62
2024-03-12T16:16:09.737Z,96525.48
2024-03-12T16:18:38.024Z,96527.05
2024-03-12T16:21:06.298Z,96526.77
2024-03-12T16:23:34.392Z,96526.15
2024-03-12T16:26:04.469Z,96528.51
2024-03-12T16:28:32.574Z,96527.17
2024-03-12T16:31:00.934Z,96532.08
2024-03-12T16:33:30.594Z,96530.98
2024-03-12T16:35:58.930Z,96530.13
2024-03-12T16:38:27.417Z,96529.41
2024-03-12T16:40:57.419Z,96525.89
2024-03-12T16:43:27.116Z,96525.58
2024-03-12T16:45:55.274Z,96528.39
2024-03-12T16:48:23.862Z,96526.38
2024-03-12T16:50:53.978Z,96526.96
2024-03-12T16:53:22.323Z,96528.63
2024-03-12T16:55:50.823Z,96530.27
2024-03-12T16:58:19.389Z,96530.88
2024-03-12T17:00:48.249Z,96535.64
2024-03-12T17:03:18.051Z,96534.80
2024-03-12T17:05:47.029Z,96532.62
2024-03-12T17:08:15.216Z,96534.04
2024-03-12T17:10:43.611Z,96531.88
2024-03-12T17:13:12.627Z,96532.27
2024-03-12T17:15:45.494Z,96533.09
2024-03-12T17:18:14.266Z,96529.91
2024-03-12T17:20:42.792Z,96531.25
2024-03-12T17:23:14.032Z,96531.48
2024-03-12T17:25:43.395Z,96533.76
2024-03-12T17:28:12.667Z,96535.89
2024-03-12T17:30:41.154Z,96532.55
2024-03-12T17:33:10.630Z,96532.17
2024-03-12T17:35:39.627Z,96535.61
2024-03-12T17:38:14.138Z,96536.15
2024-03-12T17:40:42.701Z,96533.39
2024-03-12T17:43:11.585Z,96535.55
2024-03-12T17:45:40.644Z,96534.13
2024-03-12T17:48:13.016Z,96536.10
2024-03-12T17:50:41.530Z,96538.27
2024-03-12T17:53:11.827Z,96537.27
2024-03-12T17:55:44.905Z,96537.34
2024-03-12T17:58:13.314Z,96537.45
2024-03-12T18:00:41.852Z,96539.58
2024-03-12T18:03:10.589Z,96538.36
2024-03-12T18:05:38.871Z,96538.97
2024-03-12T18:08:14.598Z,96538.30
2024-03-12T18:10:46.782Z,96541.17
2024-03-12T18:13:15.420Z,96538.10
2024-03-12T18:15:43.632Z,96540.14
2024-03-12T18:18:12.237Z,96543.59
2024-03-12T18:20:42.178Z,96544.56
2024-03-12T18:23:10.356Z,96540.41
2024-03-12T18:25:38.508Z,96539.88
2024-03-12T18:28:08.790Z,96541.79
2024-03-12T18:30:37.770Z,96543.25
2024-03-12T18:33:06.008Z,96543.14
2024-03-12T18:35:34.202Z,96541.38
2024-03-12T18:38:04.623Z,96542.11
2024-03-12T18:40:33.189Z,96543.78
2024-03-12T18:43:04.593Z,96546.37
2024-03-12T18:45:32.844Z,96548.88
2024-03-12T18:48:01.427Z,96550.52
2024-03-12T18:50:32.032Z,96547.96
2024-03-12T18:53:00.389Z,96546.03
2024-03-12T18:55:29.146Z,96544.14
2024-03-12T18:57:58.468Z,96543.40
2024-03-12T19:00:27.891Z,96547.71
2024-03-12T19:03:07.191Z,96550.33
2024-03-12T19:05:37.261Z,96550.65
2024-03-12T19:08:05.766Z,96551.70
2024-03-12T19:10:34.950Z,96552.64
2024-03-12T19:13:03.438Z,96556.54
2024-03-12T19:15:37.556Z,96558.59
2024-03-12T19:18:15.051Z,96558.38
2024-03-12T19:20:43.629Z,96554.14
2024-03-12T19:23:12.485Z,96555.32
2024-03-12T19:25:40.806Z,96555.67
2024-03-12T19:28:09.553Z,96554.05
2024-03-12T19:30:38.048Z,96552.07
2024-03-12T19:33:06.804Z,96551.03
2024-03-12T19:35:37.548Z,96550.95
2024-03-12T19:38:07.155Z,96552.08
2024-03-12T19:40:36.312Z,96549.30
2024-03-12T19:43:04.875Z,96546.95
2024-03-12T19:45:34.869Z,96548.52
2024-03-12T19:48:03.713Z,96549.03
2024-03-12T19:50:32.344Z,96549.85
2024-03-12T19:53:00.570Z,96550.30
2024-03-12T19:55:31.925Z,96551.98
2024-03-12T19:58:01.721Z,96552.15
2024-03-12T20:00:33.919Z,96551.92
2024-03-12T20:03:06.917Z,96550.83
2024-03-12T20:05:37.357Z,96548.05
2024-03-12T20:08:11.038Z,96548.64
2024-03-12T20:10:40.263Z,96547.04
2024-03-12T20:13:10.850Z,96543.90
2024-03-12T20:15:46.080Z,96545.20
2024-03-12T20:18:15.541Z,96544.30
2024-03-12T20:20:44.801Z,96546.66
2024-03-12T20:23:13.054Z,96543.61
2024-03-12T20:25:41.686Z,96542.96
2024-03-12T20:28:13.044Z,96543.66
2024-03-12T20:30:44.080Z,96544.02
2024-03-12T20:33:14.702Z,96544.58
2024-03-12T20:35:45.074Z,96543.47
2024-03-12T20:38:15.656Z,96543.84
2024-03-12T20:40:44.403Z,96547.73
2024-03-12T20:43:13.149Z,96546.86
2024-03-12T20:45:42.269Z,96543.70
2024-03-12T20:48:11.873Z,96544.20
2024-03-12T20:50:41.230Z,96545.60
2024-03-12T20:53:11.743Z,96546.63
2024-03-12T20:55:40.391Z,96546.43
2024-03-12T20:58:08.939Z,96547.90
2024-03-12T21:00:39.118Z,96550.40
2024-03-12T21:03:10.708Z,96548.90
2024-03-12T21:05:40.220Z,96548.34
2024-03-12T21:08:08.455Z,96548.66
2024-03-12T21:10:38.961Z,96546.02
2024-03-12T21:13:07.272Z,96540.48
2024-03-12T21:15:36.268Z,96544.49
2024-03-12T21:18:07.187Z,96542.96
2024-03-12T21:20:35.749Z,96543.38
2024-03-12T21:23:09.793Z,96544.20
2024-03-12T21:25:38.164Z,96545.05
2024-03-12T21:28:07.052Z,96543.40
2024-03-12T21:30:37.403Z,96543.45
2024-03-12T21:33:05.713Z,96541.86
2024-03-12T21:35:35.164Z,96541.95
2024-03-12T21:38:03.472Z,96541.46
2024-03-12T21:40:34.076Z,96540.27
2024-03-12T21:43:05.512Z,96540.19
2024-03-12T21:45:36.673Z,96539.21
2024-03-12T21:48:08.217Z,96537.14
2024-03-12T21:50:36.877Z,96533.86
2024-03-12T21:53:09.272Z,96531.50
2024-03-12T21:55:38.917Z,96529.79
2024-03-12T21:58:08.885Z,96532.42
2024-03-12T22:00:37.499Z,96531.33
2024-03-12T22:03:05.685Z,96530.19
2024-03-12T22:05:35.538Z,96528.92
2024-03-12T22:08:06.001Z,96530.16
2024-03-12T22:10:35.550Z,96531.16
2024-03-12T22:13:03.933Z,96527.10
2024-03-12T22:15:32.121Z,96526.70
2024-03-12T22:18:00.335Z,96529.75
2024-03-12T22:20:28.426Z,96529.71
2024-03-12T22:22:56.581Z,96533.25
2024-03-12T22:25:24.811Z,96535.56
2024-03-12T22:27:53.066Z,96531.73
2024-03-12T22:30:22.332Z,96532.62
2024-03-12T22:32:50.561Z,96532.64
2024-03-12T22:35:19.720Z,96534.18
2024-03-12T22:37:49.498Z,96533.41
2024-03-12T22:40:19.910Z,96531.54
2024-03-12T22:42:49.209Z,96528.05
2024-03-12T22:45:18.012Z,96527.40
2024-03-12T22:47:46.608Z,96525.16
2024-03-12T22:50:15.526Z,96525.08
2024-03-12T22:52:47.343Z,96532.43
2024-03-12T22:55:16.766Z,96531.75
2024-03-12T22:57:46.300Z,96527.89
2024-03-12T23:00:44.766Z,96529.55
2024-03-12T23:03:14.318Z,96525.04
2024-03-12T23:05:43.454Z,96523.02
2024-03-12T23:08:12.748Z,96526.66
2024-03-12T23:10:42.691Z,96531.58
2024-03-12T23:13:11.655Z,96530.23
2024-03-12T23:15:40.293Z,96528.08
2024-03-12T23:18:13.034Z,96528.59
2024-03-12T23:20:41.891Z,96529.45
2024-03-12T23:23:10.078Z,96530.42
2024-03-12T23:25:40.141Z,96531.68
2024-03-12T23:28:08.226Z,96533.58
2024-03-12T23:30:37.410Z,96535.80
2024-03-12T23:33:09.104Z,96540.04
2024-03-12T23:35:37.954Z,96538.77
2024-03-12T23:38:06.801Z,96539.46
2024-03-12T23:40:35.094Z,96539.39
2024-03-12T23:43:03.536Z,96540.94
2024-03-12T23:45:32.144Z,96536.70
2024-03-12T23:48:03.903Z,96534.44
2024-03-12T23:50:32.510Z,96534.02
2024-03-12T23:53:01.099Z,96531.35
2024-03-12T23:55:29.693Z,96531.88
2024-03-12T23:57:58.229Z,96533.23
